KORD/ORD METAR and TAF weather

Enter ICAO airport designator
Station Type Date Time Source
KORD METAR 2021/07/24 21:03 UTC NOAA

KORD 242103Z 25014KT 10SM VCTS SCT045 33/23 A2980 RMK AO2 LTG DSNT NE AND E T03280228 $


Station Type Date Time Source
KORD Decoded METAR 2021/07/24 21:03 UTC NOAA

CHICAGO O'HARE INTERNATIONAL, IL, United States (KORD) 41-59N 087-55W 200M
Jul 24, 2021 - 05:03 PM EDT / 2021.07.24 2103 UTC
Wind: from the WSW (250 degrees) at 16 MPH (14 KT):0
Visibility: 10 mile(s):0
Sky conditions: partly cloudy
Weather: thunder in the vicinity; Lightning observed
Temperature: 91.0 F (32.8 C)
Heat index: 99.1 F (37.3 C):1
Dew Point: 73.0 F (22.8 C)
Relative Humidity: 55%
Pressure (altimeter): 29.8 in. Hg (1009 hPa)
ob: KORD 242103Z 25014KT 10SM VCTS SCT045 33/23 A2980 RMK AO2 LTG DSNT NE AND E T03280228
cycle: 21

Station Type Date Time Source
KORD TAF 2021/07/24 21:36 UTC NOAA

TAF
AMD KORD 242035Z 2421/2524 23015G25KT P6SM FEW035 SCT045 BKN200
TEMPO 2421/2424 32020G38KT 3SM TSRA OVC030CB
FM250000 25007KT P6SM FEW030 BKN045
FM250900 30005KT P6SM SKC
FM251600 29011KT P6SM SCT250

Example: see airport list